Timeline UpdatesTrip UpdatesNews PostsPvt PostsTravel TipsAdmin PostsConv PostsFollowed PostsChat RequestsBlog PostsPNR Posts

Disclaimer
Search
 
 
Mon Sep 22, 2014 15:45:11 ISTHomeTrainsΣChainsAtlasPNRForumGalleryNewsFAQTripsMembersLoginFeedback
No Recent News for this Train
Other Trains in the News **new
Latest...
Train Nos. 56515 Bangalore-Hubli Fast Passenger will be regulated for 40 minutes at KADUR station on 12th June,2013 .
Wed Jun 12, 2013 (05:46PM)
⇐ Return Journey: Train# 56516

56515/Bangalore City - Hubli Passenger (UnReserved)

Time-Table HAS CHANGED.
Sep 03 (12:31PM)
Change Departure Station:
Change Arrival Station:
Post a Train Travel TipPost a Train Travel Tip **new
Post a Comment/Question/Picture/VideoPost a Comment/Question/Picture/Video
Pantry/Catering
✕ NO Pantry Car
✓ Catering Avbl
By enroute vendors
RSA - Rake Sharing
56501/02 Vijayawada Hubli Pass 56503/04 Vijayawada YPR Pass
Rake/Coach Composition
Loco
KJM WDM/G 3A
News    PNR    Forum    Time-Table    Availability    Fare Chart    Map    Arr/Dep History    Trips    Gallery    ΣChains    X/O    Timeline    
Travel Time: 13h 5m    61 halts    Distance: 470 km    Avg Speed: 35 km/hr
Type: Passenger
Zone: SWR/South Western
Departs @ 07:45 (Avg on time)
Platform# 10
SMTWTFS
Bangalore City Junction/SBC 
Arrives @ 20:50 (Avg 20m late)
Platform# ???
SMTWTFS
Hubli Junction/UBL 

61 halts. 64 intermediate Stations between Bangalore City Junction and Hubli Junction

Show ALL intermediate Stations  Show Old Time-Table

#CodeStation NameX/OArrivesAvgDepartsAvgHaltPFDay#KmSpeedElevZoneAddress
1SBCBangalore City Junction (10)»  -07:45+01010.042903mSWRBengaluru-560023, Karnataka
2MWMMalleswaram (2)X  07:49+007:50+01m--12.821916mSWRBengaluru, Karnataka
3YPRYesvantpur Junction (6)  08:01 07:58+108:02 08:00+11 2m315.648919mSWRBengaluru 560022, Karnataka
4BAWChikbanavar Junction (5)  08:11 08:10+508:12+51 2m3113.652881mSWRNMGA, Karnataka
5SDVLSoldevanahalli (3)X  08:15-08:16-1m2116.276865mSWRBengaluru, Karnataka
6GHLGolhalli (3)  08:24+608:25+61m--126.399899mSWRState Highway 74, Karnataka
7BNKHBhairanayakanahalli (2)  08:29-08:30-1m2132.967903mSWRState Highway 74, Karnataka
8DBLDodbeleX  08:34+908:35+91m3137.457907mSWRNational Highway 4, Karnataka
9MDLLMuddalingana Halli (2)  08:41-08:42-1m--143.175891mSWRNH 207, Karnataka
10NDVNidvanda (3)  08:46 08:45+808:47 08:46+81m2146.962912mSWRNH 207, Karnataka
11DBSDobbspet (2)  08:50 08:49-08:51 08:50-1m1150.062917mSWRTumkur Dist., Karnataka
12HHLHirehaliX  09:00 08:58+609:01 08:59+71m2158.336848mSWRNH 4, Karnataka
13KIATKyatsandra (4)O  09:09+409:10+51m--164.339841mSWRTumkur, Karnataka
14TKTumkur (3)  09:34 09:18+109:35 09:20+51 2m--169.592823mSWRTumkur, Karnataka
15HEIHeggere Halt (1)X  09:40 09:24-09:41 09:25-1m1175.736804mSWRHeggere, Karnataka
16MLSAMallasandra (2)  09:45 09:31+2209:46 09:32+231m--179.350802mSWRTumkur., Karnataka
17GBBGubbi (1)  09:59 09:42+2510:00 09:43+301m1187.662780mSWRGubbi, Karnataka
18NTRNittur (1)X  10:14 09:52+2910:15 09:53+291m1196.974789mSWRNH 206, Karnataka
19SPGRSampige Road (2)  10:24 10:02+3110:25 10:03+311m--1108.058831mSWRTumkur, Karnataka
20AMSAAmmasandra (1)  10:32 10:09+3110:33 10:10+311m11113.849858mSWRTumkur Dist., Karnataka
21BSNBanasandra (1)  10:41 10:17+3010:42 10:18+301m11119.549851mSWRTumkur Dist., Karnataka
22ARGPAralaguppe  10:47 10:24-10:48 10:25-1m--1124.435843mSWRState Highway 74, Karnataka
23RDIKardi  10:57 10:34+2610:58 10:35+261m--1129.881843mSWRKaradi Cross, Karnataka
24BNKBanashankari Halt  11:02 10:39-11:03 10:40-1m--1135.125849mSWRNational Highway 206, Karnataka
25TTRTiptur (4)  11:19 10:53+1811:20 10:55+211 2m--1140.646860mSWRTiptur, Karnataka
26SSNHSree Saradanagar Hal (1)  11:24 10:58-11:25 10:59-1m11142.944876mSWRTiptur, Karnataka
27HVLHonnavalli Road (3)X  11:34 11:09+3111:35 11:10+421m--1150.247888mSWRNational Highway 206, Karnataka
28ADHLAdihalli (1)  11:39 11:16+5211:40 11:17+521m11155.020870mSWRNational Highway 206, Karnataka
29ASKArsikere Junction (3)X  12:09 11:50+2312:10 11:55+251 5m--1166.167816mSWRArsikere, Karnataka
30BVRBanavar (2)  12:24 12:09+3012:25 12:10+301m--1181.747790mSWRNH 73, Karnataka
31VNRDevanur (2)  12:34 12:19+3212:35 12:20+321m--1188.767757mSWRDevanur Railway Station, Karnataka
32BLKRBallekere Halt  12:44 12:29+3712:45 12:30+371m--1198.839780mSWRNational Highway 206, Karnataka
33DRUKadur Junction (3)  12:54 12:40+3312:55 12:42+331 2m--1205.222774mSWRKadur, Karnataka
34RRBBirur Junction (3)  13:09 12:58+2813:10 13:00+281 2m--1211.169802mSWRBirur, Karnataka
35NVFNagavangala  13:20 13:09+3913:21 13:10+391m--1221.442809mSWRMelanahalli Rd, Karnataka
36AJPAjjampur (2)X  13:30 13:21+4013:31 13:22+401m--1229.254752mSWRAjjampur, Karnataka
37SHVShivani  13:42 13:34+4513:43 13:35+521m--1239.943779mSWRShivani Rd, Karnataka
38HSDHosdurga Road (1)  13:54 13:49+5413:55 13:50+551m11249.946765mSWRChitradurga Dist., Karnataka
39ABGTArbagatta Halt  13:59 13:55-14:00 13:56-1m--1253.833735mSWRState Highway 47, Karnataka
40RGIRamgiriX  14:12 14:09+5314:13 14:10+561m--1261.039705mSWRShivani Rd, Karnataka
41HLKHolalkere  14:24+5514:25+561m--1270.030661mSWRNational Highway 13, Karnataka
42JRUChikjajur Junction (3)  14:54 14:45+3914:55 14:50+451 5m--1279.965677mSWRChikkajajur, Karnataka
43SLUSasalu  15:05 14:59+5615:06 15:00+561m--1289.753660mSWRState Highway 47, Karnataka
44MYKMayakonda (2)  15:14 15:09+5715:15 15:10+1:001m--1297.655646mSWRState Highway 47, Karnataka
45KAGKodaganurX  15:24 15:19+1:0215:25 15:20+1:081m--1305.871633mSWRState Highway 47, Karnataka
46HNHHanumanahalli  15:29 15:24-15:30 15:25-1m--1310.640621mSWRHiretogaleri, Karnataka
47THNTolahunse (2)  15:39 15:34+1:2115:40 15:35+1:241m--1316.647614mSWRTholahunase, Karnataka
48DVGDavangere (2)X  16:28 15:47+5316:30 15:50+542 3m--1326.022598mSWRDavanagere, Karnataka
49HRRHarihar (3)  16:59 16:25+4617:00 16:30+531 5m--1338.954553mSWRHarihar, Karnataka
50CLIChalgeri (2)X  17:11 16:41+1:0217:12 16:42+1:031m--1348.847574mSWRChalageri, Karnataka
51RNRRanibennur (3)  17:26 16:59+4417:27 17:00+451m--1362.245583mSWRRanebennur, Karnataka
52DADDevargudda (2)X  17:37 17:11+1:0817:38 17:12+1:091m--1370.451589mSWRDevaragudda, Karnataka
53BYDByadgi (2)  17:47 17:24+1:1517:48 17:25+1:171m--1380.747632mSWRNational Highway 4, Karnataka
54HVRHaveri (3)  18:04 17:43+1:1618:05 17:45+1:251 2m--1394.848558mSWRHaveri, Karnataka
55KJGKarajgi (2)  18:14 17:54+1:2718:15 17:55+1:321m--1402.066550mSWRhaveri, Karnataka
56KVSKalsur  18:19 17:59-18:20 18:00-1m--1406.435541mSWRNH 48, Karnataka
57SVNRSavanur (2)X  18:34 18:14+1:3118:35 18:15+1:311m--1414.637584mSWRState Highway 6, Karnataka
58YLGYalvigi (2)X  18:44 18:29+1:3018:45 18:30+1:301m--1423.291621mSWRYalvigi, Karnataka
59KALSKalas Halt  18:49 18:34-18:50 18:35-1m--1429.223663mSWRState Highway 6, Karnataka
60GDIGudgeri (2)  19:01 18:49+1:2819:02 18:50+1:421m--1434.635689mSWRGudgeri, Karnataka
61SNHSaunshi (2)X  19:13 19:09+1:3919:15 19:10+1:392 1m--1445.936634mSWRSaunshi, Karnataka
62KNOKundgol (2)X  19:28 19:24+1:3619:30 19:25+1:362 1m--1454.211636mSWRKundgol, Karnataka
63UBLHubli Junction (5)•  20:20 20:50+20---1469.9-640mSWRHubli - 580020, Karnataka
Scroll to Top
Scroll to Bottom